sensor_id;sensor_type;location;lat;lon;timestamp;P1;durP1;ratioP1;P2;durP2;ratioP2
63012;SDS011;62113;45.624;11.700;2023-07-13T00:01:30;3.85;;;1.67;;
63012;SDS011;62113;45.624;11.700;2023-07-13T00:03:56;8.30;;;2.05;;
63012;SDS011;62113;45.624;11.700;2023-07-13T00:06:23;3.65;;;1.38;;
63012;SDS011;62113;45.624;11.700;2023-07-13T00:13:41;4.22;;;1.60;;
63012;SDS011;62113;45.624;11.700;2023-07-13T00:16:08;4.57;;;1.73;;
63012;SDS011;62113;45.624;11.700;2023-07-13T00:18:35;4.30;;;1.52;;
63012;SDS011;62113;45.624;11.700;2023-07-13T00:21:01;1.85;;;1.50;;
63012;SDS011;62113;45.624;11.700;2023-07-13T00:23:36;3.75;;;1.95;;
63012;SDS011;62113;45.624;11.700;2023-07-13T00:26:05;2.63;;;1.73;;
63012;SDS011;62113;45.624;11.700;2023-07-13T00:28:32;2.75;;;1.65;;
63012;SDS011;62113;45.624;11.700;2023-07-13T00:30:59;7.22;;;2.20;;
63012;SDS011;62113;45.624;11.700;2023-07-13T00:33:25;17.52;;;3.42;;
63012;SDS011;62113;45.624;11.700;2023-07-13T00:35:53;9.68;;;3.13;;
63012;SDS011;62113;45.624;11.700;2023-07-13T00:38:19;5.28;;;2.40;;
63012;SDS011;62113;45.624;11.700;2023-07-13T00:40:45;4.57;;;2.13;;
63012;SDS011;62113;45.624;11.700;2023-07-13T00:43:13;6.32;;;2.67;;
63012;SDS011;62113;45.624;11.700;2023-07-13T00:48:10;7.90;;;2.17;;
63012;SDS011;62113;45.624;11.700;2023-07-13T00:50:41;5.35;;;1.65;;
63012;SDS011;62113;45.624;11.700;2023-07-13T00:53:08;7.38;;;1.92;;
63012;SDS011;62113;45.624;11.700;2023-07-13T00:55:34;7.37;;;1.83;;
63012;SDS011;62113;45.624;11.700;2023-07-13T01:00:27;3.22;;;1.70;;
63012;SDS011;62113;45.624;11.700;2023-07-13T01:02:54;5.32;;;2.10;;
63012;SDS011;62113;45.624;11.700;2023-07-13T01:05:21;4.88;;;1.98;;
63012;SDS011;62113;45.624;11.700;2023-07-13T01:07:48;5.00;;;1.98;;
63012;SDS011;62113;45.624;11.700;2023-07-13T01:10:16;3.20;;;1.80;;
63012;SDS011;62113;45.624;11.700;2023-07-13T01:12:45;5.22;;;2.05;;
63012;SDS011;62113;45.624;11.700;2023-07-13T01:18:02;2.75;;;1.70;;
63012;SDS011;62113;45.624;11.700;2023-07-13T01:20:30;5.75;;;2.15;;
63012;SDS011;62113;45.624;11.700;2023-07-13T01:22:56;6.15;;;2.88;;
63012;SDS011;62113;45.624;11.700;2023-07-13T01:25:22;3.27;;;1.73;;
63012;SDS011;62113;45.624;11.700;2023-07-13T01:27:47;3.10;;;1.70;;
63012;SDS011;62113;45.624;11.700;2023-07-13T01:30:13;3.17;;;1.80;;
63012;SDS011;62113;45.624;11.700;2023-07-13T01:32:39;7.10;;;2.45;;
63012;SDS011;62113;45.624;11.700;2023-07-13T01:35:07;6.25;;;2.28;;
63012;SDS011;62113;45.624;11.700;2023-07-13T01:37:33;6.50;;;2.17;;
63012;SDS011;62113;45.624;11.700;2023-07-13T01:40:01;5.88;;;2.20;;
63012;SDS011;62113;45.624;11.700;2023-07-13T01:42:28;6.05;;;2.22;;
63012;SDS011;62113;45.624;11.700;2023-07-13T01:44:54;5.33;;;2.07;;
63012;SDS011;62113;45.624;11.700;2023-07-13T01:47:19;5.73;;;2.23;;
63012;SDS011;62113;45.624;11.700;2023-07-13T01:49:45;5.77;;;1.83;;
63012;SDS011;62113;45.624;11.700;2023-07-13T01:52:12;10.60;;;2.60;;
63012;SDS011;62113;45.624;11.700;2023-07-13T01:54:38;4.85;;;2.45;;
63012;SDS011;62113;45.624;11.700;2023-07-13T01:57:03;8.90;;;2.30;;
63012;SDS011;62113;45.624;11.700;2023-07-13T01:59:29;11.70;;;2.63;;
63012;SDS011;62113;45.624;11.700;2023-07-13T02:01:55;7.03;;;2.60;;
63012;SDS011;62113;45.624;11.700;2023-07-13T02:04:20;4.13;;;2.10;;
63012;SDS011;62113;45.624;11.700;2023-07-13T02:06:46;4.93;;;2.20;;
63012;SDS011;62113;45.624;11.700;2023-07-13T02:09:11;4.00;;;2.00;;
63012;SDS011;62113;45.624;11.700;2023-07-13T02:11:37;4.77;;;1.90;;
63012;SDS011;62113;45.624;11.700;2023-07-13T02:14:03;5.87;;;2.30;;
63012;SDS011;62113;45.624;11.700;2023-07-13T02:16:29;3.30;;;1.65;;
63012;SDS011;62113;45.624;11.700;2023-07-13T02:18:55;7.00;;;2.13;;
63012;SDS011;62113;45.624;11.700;2023-07-13T02:21:21;3.95;;;2.25;;
63012;SDS011;62113;45.624;11.700;2023-07-13T02:23:48;2.60;;;1.92;;
63012;SDS011;62113;45.624;11.700;2023-07-13T02:26:14;4.75;;;2.35;;
63012;SDS011;62113;45.624;11.700;2023-07-13T02:28:40;4.38;;;2.35;;
63012;SDS011;62113;45.624;11.700;2023-07-13T02:31:07;6.37;;;2.63;;
63012;SDS011;62113;45.624;11.700;2023-07-13T02:33:34;6.50;;;2.55;;
63012;SDS011;62113;45.624;11.700;2023-07-13T02:36:00;8.93;;;2.28;;
63012;SDS011;62113;45.624;11.700;2023-07-13T02:38:26;6.90;;;2.38;;
63012;SDS011;62113;45.624;11.700;2023-07-13T02:40:52;5.03;;;2.30;;
63012;SDS011;62113;45.624;11.700;2023-07-13T02:43:18;4.43;;;2.20;;
63012;SDS011;62113;45.624;11.700;2023-07-13T02:45:44;5.23;;;2.37;;
63012;SDS011;62113;45.624;11.700;2023-07-13T02:48:10;3.38;;;2.22;;
63012;SDS011;62113;45.624;11.700;2023-07-13T02:50:35;3.83;;;2.50;;
63012;SDS011;62113;45.624;11.700;2023-07-13T02:53:01;8.50;;;2.70;;
63012;SDS011;62113;45.624;11.700;2023-07-13T02:55:26;6.50;;;2.50;;
63012;SDS011;62113;45.624;11.700;2023-07-13T02:57:52;6.70;;;2.47;;
63012;SDS011;62113;45.624;11.700;2023-07-13T03:00:19;4.20;;;2.63;;
63012;SDS011;62113;45.624;11.700;2023-07-13T03:02:45;5.57;;;2.70;;
63012;SDS011;62113;45.624;11.700;2023-07-13T03:05:10;8.38;;;3.63;;
63012;SDS011;62113;45.624;11.700;2023-07-13T03:07:37;4.85;;;2.53;;
63012;SDS011;62113;45.624;11.700;2023-07-13T03:14:55;4.57;;;3.00;;
63012;SDS011;62113;45.624;11.700;2023-07-13T03:17:22;5.60;;;3.05;;
63012;SDS011;62113;45.624;11.700;2023-07-13T03:19:47;6.93;;;3.20;;
63012;SDS011;62113;45.624;11.700;2023-07-13T03:22:16;8.13;;;3.17;;
63012;SDS011;62113;45.624;11.700;2023-07-13T03:24:42;7.55;;;3.17;;
63012;SDS011;62113;45.624;11.700;2023-07-13T03:27:08;6.15;;;3.00;;
63012;SDS011;62113;45.624;11.700;2023-07-13T03:29:34;4.50;;;3.47;;
63012;SDS011;62113;45.624;11.700;2023-07-13T03:32:00;8.13;;;3.40;;
63012;SDS011;62113;45.624;11.700;2023-07-13T03:34:25;8.90;;;3.42;;
63012;SDS011;62113;45.624;11.700;2023-07-13T03:36:53;7.50;;;3.90;;
63012;SDS011;62113;45.624;11.700;2023-07-13T03:39:20;3.70;;;3.17;;
63012;SDS011;62113;45.624;11.700;2023-07-13T03:41:46;7.50;;;3.50;;
63012;SDS011;62113;45.624;11.700;2023-07-13T03:44:12;4.43;;;3.58;;
63012;SDS011;62113;45.624;11.700;2023-07-13T03:46:37;5.30;;;3.53;;
63012;SDS011;62113;45.624;11.700;2023-07-13T03:49:03;4.90;;;3.40;;
63012;SDS011;62113;45.624;11.700;2023-07-13T03:51:30;6.80;;;3.47;;
63012;SDS011;62113;45.624;11.700;2023-07-13T03:53:56;8.52;;;3.42;;
63012;SDS011;62113;45.624;11.700;2023-07-13T03:56:22;4.45;;;3.00;;
63012;SDS011;62113;45.624;11.700;2023-07-13T03:58:48;6.20;;;3.50;;
63012;SDS011;62113;45.624;11.700;2023-07-13T04:01:15;3.78;;;2.42;;
63012;SDS011;62113;45.624;11.700;2023-07-13T04:03:42;7.68;;;3.22;;
63012;SDS011;62113;45.624;11.700;2023-07-13T04:06:12;6.82;;;3.50;;
63012;SDS011;62113;45.624;11.700;2023-07-13T04:08:40;4.68;;;3.05;;
63012;SDS011;62113;45.624;11.700;2023-07-13T04:11:06;4.63;;;3.35;;
63012;SDS011;62113;45.624;11.700;2023-07-13T04:13:32;9.32;;;3.65;;
63012;SDS011;62113;45.624;11.700;2023-07-13T04:15:58;10.50;;;4.00;;
63012;SDS011;62113;45.624;11.700;2023-07-13T04:18:23;7.13;;;3.70;;
63012;SDS011;62113;45.624;11.700;2023-07-13T04:23:17;8.20;;;3.47;;
63012;SDS011;62113;45.624;11.700;2023-07-13T04:25:43;6.20;;;3.80;;
63012;SDS011;62113;45.624;11.700;2023-07-13T04:28:14;8.43;;;3.70;;
63012;SDS011;62113;45.624;11.700;2023-07-13T04:30:42;7.82;;;3.85;;
63012;SDS011;62113;45.624;11.700;2023-07-13T04:33:08;7.95;;;3.63;;
63012;SDS011;62113;45.624;11.700;2023-07-13T04:35:34;6.35;;;3.30;;
63012;SDS011;62113;45.624;11.700;2023-07-13T04:40:27;5.05;;;3.35;;
63012;SDS011;62113;45.624;11.700;2023-07-13T04:42:53;5.18;;;3.78;;
63012;SDS011;62113;45.624;11.700;2023-07-13T04:45:19;7.93;;;3.77;;
63012;SDS011;62113;45.624;11.700;2023-07-13T04:47:45;8.35;;;4.10;;
63012;SDS011;62113;45.624;11.700;2023-07-13T04:50:12;8.70;;;3.75;;
63012;SDS011;62113;45.624;11.700;2023-07-13T04:52:40;5.30;;;3.83;;
63012;SDS011;62113;45.624;11.700;2023-07-13T04:55:07;7.72;;;3.95;;
63012;SDS011;62113;45.624;11.700;2023-07-13T04:57:33;10.77;;;3.63;;
63012;SDS011;62113;45.624;11.700;2023-07-13T04:59:58;6.70;;;3.55;;
63012;SDS011;62113;45.624;11.700;2023-07-13T05:02:26;8.18;;;3.88;;
63012;SDS011;62113;45.624;11.700;2023-07-13T05:04:53;6.82;;;3.60;;
63012;SDS011;62113;45.624;11.700;2023-07-13T05:07:18;7.20;;;3.20;;
63012;SDS011;62113;45.624;11.700;2023-07-13T05:09:46;7.28;;;3.38;;
63012;SDS011;62113;45.624;11.700;2023-07-13T05:12:12;5.93;;;3.45;;
63012;SDS011;62113;45.624;11.700;2023-07-13T05:14:37;6.33;;;2.90;;
63012;SDS011;62113;45.624;11.700;2023-07-13T05:17:03;8.77;;;2.90;;
63012;SDS011;62113;45.624;11.700;2023-07-13T05:19:29;6.43;;;3.55;;
63012;SDS011;62113;45.624;11.700;2023-07-13T05:21:55;5.13;;;3.42;;
63012;SDS011;62113;45.624;11.700;2023-07-13T05:24:21;8.43;;;3.73;;
63012;SDS011;62113;45.624;11.700;2023-07-13T05:26:46;6.93;;;4.15;;
63012;SDS011;62113;45.624;11.700;2023-07-13T05:29:12;5.40;;;3.40;;
63012;SDS011;62113;45.624;11.700;2023-07-13T05:31:38;8.37;;;3.77;;
63012;SDS011;62113;45.624;11.700;2023-07-13T05:34:03;5.47;;;3.23;;
63012;SDS011;62113;45.624;11.700;2023-07-13T05:36:29;3.92;;;2.90;;
63012;SDS011;62113;45.624;11.700;2023-07-13T05:38:55;2.83;;;2.33;;
63012;SDS011;62113;45.624;11.700;2023-07-13T05:41:20;4.10;;;2.37;;
63012;SDS011;62113;45.624;11.700;2023-07-13T05:43:46;7.37;;;2.80;;
63012;SDS011;62113;45.624;11.700;2023-07-13T05:46:12;5.00;;;3.13;;
63012;SDS011;62113;45.624;11.700;2023-07-13T05:48:37;7.63;;;2.80;;
63012;SDS011;62113;45.624;11.700;2023-07-13T05:51:03;4.03;;;2.60;;
63012;SDS011;62113;45.624;11.700;2023-07-13T05:53:28;2.67;;;1.95;;
63012;SDS011;62113;45.624;11.700;2023-07-13T05:55:55;5.03;;;2.40;;
63012;SDS011;62113;45.624;11.700;2023-07-13T06:03:12;4.00;;;2.42;;
63012;SDS011;62113;45.624;11.700;2023-07-13T06:05:38;9.10;;;2.25;;
63012;SDS011;62113;45.624;11.700;2023-07-13T06:08:04;2.90;;;2.30;;
63012;SDS011;62113;45.624;11.700;2023-07-13T06:10:32;3.55;;;2.40;;
63012;SDS011;62113;45.624;11.700;2023-07-13T06:12:59;5.50;;;2.30;;
63012;SDS011;62113;45.624;11.700;2023-07-13T06:15:24;7.63;;;2.33;;
63012;SDS011;62113;45.624;11.700;2023-07-13T06:17:50;5.47;;;2.13;;
63012;SDS011;62113;45.624;11.700;2023-07-13T06:20:15;3.80;;;2.00;;
63012;SDS011;62113;45.624;11.700;2023-07-13T06:22:41;4.22;;;1.83;;
63012;SDS011;62113;45.624;11.700;2023-07-13T06:25:07;4.00;;;2.10;;
63012;SDS011;62113;45.624;11.700;2023-07-13T06:27:33;2.72;;;1.60;;
63012;SDS011;62113;45.624;11.700;2023-07-13T06:29:59;8.35;;;1.92;;
63012;SDS011;62113;45.624;11.700;2023-07-13T06:32:24;3.87;;;2.03;;
63012;SDS011;62113;45.624;11.700;2023-07-13T06:34:50;4.00;;;1.88;;
63012;SDS011;62113;45.624;11.700;2023-07-13T06:37:16;4.57;;;1.90;;
63012;SDS011;62113;45.624;11.700;2023-07-13T06:39:42;5.57;;;1.65;;
63012;SDS011;62113;45.624;11.700;2023-07-13T06:42:08;3.80;;;1.67;;
63012;SDS011;62113;45.624;11.700;2023-07-13T06:44:34;4.10;;;1.63;;
63012;SDS011;62113;45.624;11.700;2023-07-13T06:47:00;3.92;;;2.00;;
63012;SDS011;62113;45.624;11.700;2023-07-13T06:49:25;7.10;;;2.67;;
63012;SDS011;62113;45.624;11.700;2023-07-13T06:51:51;9.43;;;2.63;;
63012;SDS011;62113;45.624;11.700;2023-07-13T06:54:16;3.23;;;2.00;;
63012;SDS011;62113;45.624;11.700;2023-07-13T06:56:42;6.40;;;2.10;;
63012;SDS011;62113;45.624;11.700;2023-07-13T06:59:08;5.38;;;1.80;;
63012;SDS011;62113;45.624;11.700;2023-07-13T07:01:34;4.85;;;2.47;;
63012;SDS011;62113;45.624;11.700;2023-07-13T07:03:59;5.97;;;2.92;;
63012;SDS011;62113;45.624;11.700;2023-07-13T07:06:25;4.07;;;2.08;;
63012;SDS011;62113;45.624;11.700;2023-07-13T07:08:51;4.60;;;2.47;;
63012;SDS011;62113;45.624;11.700;2023-07-13T07:11:18;12.73;;;2.88;;
63012;SDS011;62113;45.624;11.700;2023-07-13T07:13:47;6.40;;;2.55;;
63012;SDS011;62113;45.624;11.700;2023-07-13T07:16:13;8.85;;;2.70;;
63012;SDS011;62113;45.624;11.700;2023-07-13T07:18:39;6.15;;;2.83;;
63012;SDS011;62113;45.624;11.700;2023-07-13T07:21:04;6.43;;;3.00;;
63012;SDS011;62113;45.624;11.700;2023-07-13T07:23:30;3.92;;;2.70;;
63012;SDS011;62113;45.624;11.700;2023-07-13T07:25:56;6.80;;;2.95;;
63012;SDS011;62113;45.624;11.700;2023-07-13T07:28:21;6.10;;;3.00;;
63012;SDS011;62113;45.624;11.700;2023-07-13T07:30:47;7.57;;;3.05;;
63012;SDS011;62113;45.624;11.700;2023-07-13T07:33:14;5.82;;;3.03;;
63012;SDS011;62113;45.624;11.700;2023-07-13T07:35:41;4.40;;;2.78;;
63012;SDS011;62113;45.624;11.700;2023-07-13T07:38:08;5.28;;;3.05;;
63012;SDS011;62113;45.624;11.700;2023-07-13T07:40:36;4.53;;;2.60;;
63012;SDS011;62113;45.624;11.700;2023-07-13T07:43:02;4.30;;;2.63;;
63012;SDS011;62113;45.624;11.700;2023-07-13T07:45:28;6.65;;;2.75;;
63012;SDS011;62113;45.624;11.700;2023-07-13T07:47:53;5.30;;;2.53;;
63012;SDS011;62113;45.624;11.700;2023-07-13T07:50:23;14.73;;;2.85;;
63012;SDS011;62113;45.624;11.700;2023-07-13T07:52:50;9.88;;;3.13;;
63012;SDS011;62113;45.624;11.700;2023-07-13T07:55:15;8.30;;;2.63;;
63012;SDS011;62113;45.624;11.700;2023-07-13T07:57:41;9.65;;;3.42;;
63012;SDS011;62113;45.624;11.700;2023-07-13T08:00:07;7.50;;;3.70;;
63012;SDS011;62113;45.624;11.700;2023-07-13T08:02:33;5.53;;;3.40;;
63012;SDS011;62113;45.624;11.700;2023-07-13T08:04:58;6.53;;;3.33;;
63012;SDS011;62113;45.624;11.700;2023-07-13T08:07:24;6.07;;;3.05;;
63012;SDS011;62113;45.624;11.700;2023-07-13T08:09:53;5.10;;;3.40;;
63012;SDS011;62113;45.624;11.700;2023-07-13T08:12:19;7.32;;;3.42;;
63012;SDS011;62113;45.624;11.700;2023-07-13T08:14:45;8.32;;;3.65;;
63012;SDS011;62113;45.624;11.700;2023-07-13T08:17:18;4.88;;;3.13;;
63012;SDS011;62113;45.624;11.700;2023-07-13T08:19:47;7.97;;;3.50;;
63012;SDS011;62113;45.624;11.700;2023-07-13T08:22:12;8.75;;;3.92;;
63012;SDS011;62113;45.624;11.700;2023-07-13T08:24:38;5.78;;;3.08;;
63012;SDS011;62113;45.624;11.700;2023-07-13T08:27:04;5.40;;;2.75;;
63012;SDS011;62113;45.624;11.700;2023-07-13T08:29:29;4.85;;;3.40;;
63012;SDS011;62113;45.624;11.700;2023-07-13T08:31:59;5.20;;;3.47;;
63012;SDS011;62113;45.624;11.700;2023-07-13T08:34:25;8.43;;;3.90;;
63012;SDS011;62113;45.624;11.700;2023-07-13T08:36:51;7.18;;;4.05;;
63012;SDS011;62113;45.624;11.700;2023-07-13T08:39:16;7.90;;;4.03;;
63012;SDS011;62113;45.624;11.700;2023-07-13T08:41:44;7.05;;;3.70;;
63012;SDS011;62113;45.624;11.700;2023-07-13T08:44:20;8.35;;;4.22;;
63012;SDS011;62113;45.624;11.700;2023-07-13T08:46:56;8.27;;;4.28;;
63012;SDS011;62113;45.624;11.700;2023-07-13T08:49:24;7.75;;;4.10;;
63012;SDS011;62113;45.624;11.700;2023-07-13T08:51:57;10.02;;;4.22;;
63012;SDS011;62113;45.624;11.700;2023-07-13T08:54:34;6.90;;;4.30;;
63012;SDS011;62113;45.624;11.700;2023-07-13T08:57:09;7.60;;;4.15;;
63012;SDS011;62113;45.624;11.700;2023-07-13T08:59:41;10.18;;;4.03;;
63012;SDS011;62113;45.624;11.700;2023-07-13T09:04:50;7.05;;;4.28;;
63012;SDS011;62113;45.624;11.700;2023-07-13T09:12:57;5.57;;;3.60;;
63012;SDS011;62113;45.624;11.700;2023-07-13T09:15:44;12.57;;;4.88;;
63012;SDS011;62113;45.624;11.700;2023-07-13T09:20:54;6.28;;;3.90;;
63012;SDS011;62113;45.624;11.700;2023-07-13T09:23:24;4.82;;;3.97;;
63012;SDS011;62113;45.624;11.700;2023-07-13T09:25:55;5.53;;;3.90;;
63012;SDS011;62113;45.624;11.700;2023-07-13T09:28:41;6.32;;;4.03;;
63012;SDS011;62113;45.624;11.700;2023-07-13T09:33:44;8.68;;;4.82;;
63012;SDS011;62113;45.624;11.700;2023-07-13T09:38:45;9.48;;;4.30;;
63012;SDS011;62113;45.624;11.700;2023-07-13T09:44:13;8.63;;;4.07;;
63012;SDS011;62113;45.624;11.700;2023-07-13T09:47:01;10.02;;;4.47;;
63012;SDS011;62113;45.624;11.700;2023-07-13T09:49:27;6.72;;;3.95;;
63012;SDS011;62113;45.624;11.700;2023-07-13T09:51:59;10.40;;;4.18;;
63012;SDS011;62113;45.624;11.700;2023-07-13T09:54:32;10.57;;;4.07;;
63012;SDS011;62113;45.624;11.700;2023-07-13T09:57:00;7.32;;;3.97;;
63012;SDS011;62113;45.624;11.700;2023-07-13T09:59:28;10.40;;;4.70;;
63012;SDS011;62113;45.624;11.700;2023-07-13T10:01:58;8.18;;;4.28;;
63012;SDS011;62113;45.624;11.700;2023-07-13T10:04:33;10.50;;;4.70;;
63012;SDS011;62113;45.624;11.700;2023-07-13T10:07:06;7.95;;;4.35;;
63012;SDS011;62113;45.624;11.700;2023-07-13T10:09:33;7.38;;;4.45;;
63012;SDS011;62113;45.624;11.700;2023-07-13T10:11:59;8.48;;;4.63;;
63012;SDS011;62113;45.624;11.700;2023-07-13T10:14:25;9.93;;;4.45;;
63012;SDS011;62113;45.624;11.700;2023-07-13T10:19:23;7.15;;;4.15;;
63012;SDS011;62113;45.624;11.700;2023-07-13T10:21:55;6.88;;;4.40;;
63012;SDS011;62113;45.624;11.700;2023-07-13T10:24:29;7.32;;;4.28;;
63012;SDS011;62113;45.624;11.700;2023-07-13T10:27:00;8.63;;;4.68;;
63012;SDS011;62113;45.624;11.700;2023-07-13T10:29:38;5.63;;;4.32;;
63012;SDS011;62113;45.624;11.700;2023-07-13T10:32:12;6.13;;;3.90;;
63012;SDS011;62113;45.624;11.700;2023-07-13T10:34:38;7.95;;;4.07;;
63012;SDS011;62113;45.624;11.700;2023-07-13T10:37:07;9.95;;;3.72;;
63012;SDS011;62113;45.624;11.700;2023-07-13T10:39:42;5.45;;;3.75;;
63012;SDS011;62113;45.624;11.700;2023-07-13T10:42:08;9.60;;;4.53;;
63012;SDS011;62113;45.624;11.700;2023-07-13T10:44:40;7.85;;;3.80;;
63012;SDS011;62113;45.624;11.700;2023-07-13T10:47:06;11.65;;;3.72;;
63012;SDS011;62113;45.624;11.700;2023-07-13T10:49:38;12.85;;;3.72;;
63012;SDS011;62113;45.624;11.700;2023-07-13T10:52:05;6.85;;;2.95;;
63012;SDS011;62113;45.624;11.700;2023-07-13T10:54:51;6.78;;;3.35;;
63012;SDS011;62113;45.624;11.700;2023-07-13T10:57:18;4.95;;;3.00;;
63012;SDS011;62113;45.624;11.700;2023-07-13T10:59:46;6.85;;;3.00;;
63012;SDS011;62113;45.624;11.700;2023-07-13T11:02:21;6.03;;;2.92;;
63012;SDS011;62113;45.624;11.700;2023-07-13T11:04:51;4.40;;;2.90;;
63012;SDS011;62113;45.624;11.700;2023-07-13T11:07:23;5.82;;;2.60;;
63012;SDS011;62113;45.624;11.700;2023-07-13T11:09:56;8.02;;;2.97;;
63012;SDS011;62113;45.624;11.700;2023-07-13T11:25:24;5.07;;;3.38;;
63012;SDS011;62113;45.624;11.700;2023-07-13T11:33:24;5.65;;;2.53;;
63012;SDS011;62113;45.624;11.700;2023-07-13T11:36:14;10.63;;;2.55;;
63012;SDS011;62113;45.624;11.700;2023-07-13T11:38:42;4.00;;;2.50;;
63012;SDS011;62113;45.624;11.700;2023-07-13T11:41:35;5.18;;;1.90;;
63012;SDS011;62113;45.624;11.700;2023-07-13T11:44:11;3.47;;;2.10;;
63012;SDS011;62113;45.624;11.700;2023-07-13T11:46:44;3.50;;;2.00;;
63012;SDS011;62113;45.624;11.700;2023-07-13T11:49:13;3.72;;;2.30;;
63012;SDS011;62113;45.624;11.700;2023-07-13T11:51:41;2.60;;;2.08;;
63012;SDS011;62113;45.624;11.700;2023-07-13T11:54:43;6.43;;;2.70;;
63012;SDS011;62113;45.624;11.700;2023-07-13T11:57:28;5.63;;;2.25;;
63012;SDS011;62113;45.624;11.700;2023-07-13T12:00:00;8.38;;;3.38;;
63012;SDS011;62113;45.624;11.700;2023-07-13T12:05:04;8.13;;;2.78;;
63012;SDS011;62113;45.624;11.700;2023-07-13T12:07:32;5.75;;;2.90;;
63012;SDS011;62113;45.624;11.700;2023-07-13T12:12:55;7.50;;;2.63;;
63012;SDS011;62113;45.624;11.700;2023-07-13T12:15:23;6.18;;;2.80;;
63012;SDS011;62113;45.624;11.700;2023-07-13T12:17:55;7.50;;;2.88;;
63012;SDS011;62113;45.624;11.700;2023-07-13T12:22:58;9.45;;;3.08;;
63012;SDS011;62113;45.624;11.700;2023-07-13T12:25:25;4.85;;;2.42;;
63012;SDS011;62113;45.624;11.700;2023-07-13T12:27:51;4.40;;;2.28;;
63012;SDS011;62113;45.624;11.700;2023-07-13T12:35:38;12.52;;;2.53;;
63012;SDS011;62113;45.624;11.700;2023-07-13T12:38:15;11.45;;;2.90;;
63012;SDS011;62113;45.624;11.700;2023-07-13T12:40:41;7.22;;;3.10;;
63012;SDS011;62113;45.624;11.700;2023-07-13T12:45:54;14.13;;;3.35;;
63012;SDS011;62113;45.624;11.700;2023-07-13T12:48:30;6.63;;;3.42;;
63012;SDS011;62113;45.624;11.700;2023-07-13T12:51:03;5.93;;;3.08;;
63012;SDS011;62113;45.624;11.700;2023-07-13T12:53:34;16.17;;;3.75;;
63012;SDS011;62113;45.624;11.700;2023-07-13T12:56:08;10.73;;;3.13;;
63012;SDS011;62113;45.624;11.700;2023-07-13T13:01:09;7.65;;;2.65;;
63012;SDS011;62113;45.624;11.700;2023-07-13T13:03:44;10.13;;;2.88;;
63012;SDS011;62113;45.624;11.700;2023-07-13T13:08:43;10.85;;;2.80;;
63012;SDS011;62113;45.624;11.700;2023-07-13T13:11:10;11.07;;;3.50;;
63012;SDS011;62113;45.624;11.700;2023-07-13T13:13:35;21.17;;;3.63;;
63012;SDS011;62113;45.624;11.700;2023-07-13T13:16:17;16.80;;;3.88;;
63012;SDS011;62113;45.624;11.700;2023-07-13T13:18:53;10.95;;;3.78;;
63012;SDS011;62113;45.624;11.700;2023-07-13T13:21:22;13.27;;;3.28;;
63012;SDS011;62113;45.624;11.700;2023-07-13T13:23:49;7.45;;;2.65;;
63012;SDS011;62113;45.624;11.700;2023-07-13T13:26:16;15.70;;;3.17;;
63012;SDS011;62113;45.624;11.700;2023-07-13T13:31:10;9.55;;;3.08;;
63012;SDS011;62113;45.624;11.700;2023-07-13T13:33:40;8.52;;;3.28;;
63012;SDS011;62113;45.624;11.700;2023-07-13T13:38:48;7.45;;;2.90;;
63012;SDS011;62113;45.624;11.700;2023-07-13T13:41:15;6.88;;;3.10;;
63012;SDS011;62113;45.624;11.700;2023-07-13T13:46:14;6.80;;;3.10;;
63012;SDS011;62113;45.624;11.700;2023-07-13T13:48:42;11.20;;;3.55;;
63012;SDS011;62113;45.624;11.700;2023-07-13T13:51:13;7.28;;;3.13;;
63012;SDS011;62113;45.624;11.700;2023-07-13T13:53:44;10.60;;;3.27;;
63012;SDS011;62113;45.624;11.700;2023-07-13T13:56:11;12.57;;;3.22;;
63012;SDS011;62113;45.624;11.700;2023-07-13T13:58:37;7.88;;;2.90;;
63012;SDS011;62113;45.624;11.700;2023-07-13T14:01:03;9.68;;;3.15;;
63012;SDS011;62113;45.624;11.700;2023-07-13T14:03:33;9.70;;;3.55;;
63012;SDS011;62113;45.624;11.700;2023-07-13T14:05:59;8.07;;;3.17;;
63012;SDS011;62113;45.624;11.700;2023-07-13T14:08:25;7.10;;;2.97;;
63012;SDS011;62113;45.624;11.700;2023-07-13T14:10:51;8.50;;;3.50;;
63012;SDS011;62113;45.624;11.700;2023-07-13T14:13:30;10.63;;;3.42;;
63012;SDS011;62113;45.624;11.700;2023-07-13T14:16:01;15.18;;;3.85;;
63012;SDS011;62113;45.624;11.700;2023-07-13T14:20:52;13.93;;;3.88;;
63012;SDS011;62113;45.624;11.700;2023-07-13T14:23:18;10.65;;;3.50;;
63012;SDS011;62113;45.624;11.700;2023-07-13T14:25:44;10.98;;;4.18;;
63012;SDS011;62113;45.624;11.700;2023-07-13T14:28:19;9.40;;;3.88;;
63012;SDS011;62113;45.624;11.700;2023-07-13T14:30:50;8.60;;;3.50;;
63012;SDS011;62113;45.624;11.700;2023-07-13T14:33:17;6.93;;;3.58;;
63012;SDS011;62113;45.624;11.700;2023-07-13T14:35:42;16.45;;;4.03;;
63012;SDS011;62113;45.624;11.700;2023-07-13T14:38:13;7.45;;;3.42;;
63012;SDS011;62113;45.624;11.700;2023-07-13T14:40:41;8.02;;;3.83;;
63012;SDS011;62113;45.624;11.700;2023-07-13T14:45:35;7.00;;;3.60;;
63012;SDS011;62113;45.624;11.700;2023-07-13T14:48:08;9.48;;;2.97;;
63012;SDS011;62113;45.624;11.700;2023-07-13T14:50:40;4.47;;;2.20;;
63012;SDS011;62113;45.624;11.700;2023-07-13T14:53:08;11.00;;;2.72;;
63012;SDS011;62113;45.624;11.700;2023-07-13T14:55:36;7.88;;;2.20;;
63012;SDS011;62113;45.624;11.700;2023-07-13T14:58:02;6.65;;;1.80;;
63012;SDS011;62113;45.624;11.700;2023-07-13T15:00:27;7.55;;;2.42;;
63012;SDS011;62113;45.624;11.700;2023-07-13T15:02:54;3.55;;;2.15;;
63012;SDS011;62113;45.624;11.700;2023-07-13T15:05:26;4.60;;;1.90;;
63012;SDS011;62113;45.624;11.700;2023-07-13T15:07:58;7.32;;;2.13;;
63012;SDS011;62113;45.624;11.700;2023-07-13T15:10:26;5.30;;;2.33;;
63012;SDS011;62113;45.624;11.700;2023-07-13T15:13:04;8.00;;;2.40;;
63012;SDS011;62113;45.624;11.700;2023-07-13T15:15:40;6.13;;;2.35;;
63012;SDS011;62113;45.624;11.700;2023-07-13T15:18:09;3.55;;;2.15;;
63012;SDS011;62113;45.624;11.700;2023-07-13T15:20:37;6.10;;;2.25;;
63012;SDS011;62113;45.624;11.700;2023-07-13T15:23:03;2.53;;;2.03;;
63012;SDS011;62113;45.624;11.700;2023-07-13T15:25:30;5.60;;;1.90;;
63012;SDS011;62113;45.624;11.700;2023-07-13T15:28:00;6.65;;;2.22;;
63012;SDS011;62113;45.624;11.700;2023-07-13T15:30:28;6.30;;;2.50;;
63012;SDS011;62113;45.624;11.700;2023-07-13T15:32:57;6.80;;;2.38;;
63012;SDS011;62113;45.624;11.700;2023-07-13T15:35:27;8.60;;;2.25;;
63012;SDS011;62113;45.624;11.700;2023-07-13T15:37:53;9.38;;;2.60;;
63012;SDS011;62113;45.624;11.700;2023-07-13T15:40:19;8.13;;;2.58;;
63012;SDS011;62113;45.624;11.700;2023-07-13T15:42:48;7.18;;;2.63;;
63012;SDS011;62113;45.624;11.700;2023-07-13T15:45:15;9.93;;;2.80;;
63012;SDS011;62113;45.624;11.700;2023-07-13T15:47:49;12.65;;;3.90;;
63012;SDS011;62113;45.624;11.700;2023-07-13T15:52:43;6.63;;;2.80;;
63012;SDS011;62113;45.624;11.700;2023-07-13T15:55:12;8.27;;;2.50;;
63012;SDS011;62113;45.624;11.700;2023-07-13T15:57:43;7.90;;;2.50;;
63012;SDS011;62113;45.624;11.700;2023-07-13T16:00:14;8.60;;;2.85;;
63012;SDS011;62113;45.624;11.700;2023-07-13T16:02:42;14.77;;;2.40;;
63012;SDS011;62113;45.624;11.700;2023-07-13T16:05:07;4.50;;;2.63;;
63012;SDS011;62113;45.624;11.700;2023-07-13T16:07:33;12.77;;;3.13;;
63012;SDS011;62113;45.624;11.700;2023-07-13T16:09:58;7.72;;;2.50;;
63012;SDS011;62113;45.624;11.700;2023-07-13T16:12:25;6.40;;;2.67;;
63012;SDS011;62113;45.624;11.700;2023-07-13T16:14:51;8.98;;;2.63;;
63012;SDS011;62113;45.624;11.700;2023-07-13T16:17:18;6.70;;;2.20;;
63012;SDS011;62113;45.624;11.700;2023-07-13T16:19:45;7.72;;;2.28;;
63012;SDS011;62113;45.624;11.700;2023-07-13T16:22:15;4.82;;;2.40;;